sensor_id;sensor_type;location;lat;lon;timestamp;pressure;altitude;pressure_sealevel;temperature;humidity
46583;BME280;32309;48.858;8.252;2023-07-13T00:01:17;100296.38;;;21.59;53.41
46583;BME280;32309;48.858;8.252;2023-07-13T00:03:18;100293.38;;;21.54;53.06
46583;BME280;32309;48.858;8.252;2023-07-13T00:05:18;100306.88;;;21.51;52.86
46583;BME280;32309;48.858;8.252;2023-07-13T00:07:18;100306.19;;;21.49;52.29
46583;BME280;32309;48.858;8.252;2023-07-13T00:09:21;100305.50;;;21.47;52.66
46583;BME280;32309;48.858;8.252;2023-07-13T00:11:22;100308.16;;;21.47;52.79
46583;BME280;32309;48.858;8.252;2023-07-13T00:13:22;100306.53;;;21.46;53.26
46583;BME280;32309;48.858;8.252;2023-07-13T00:15:23;100301.25;;;21.46;52.28
46583;BME280;32309;48.858;8.252;2023-07-13T00:17:25;100304.03;;;21.44;53.51
46583;BME280;32309;48.858;8.252;2023-07-13T00:19:26;100300.03;;;21.40;53.09
46583;BME280;32309;48.858;8.252;2023-07-13T00:21:27;100303.78;;;21.30;53.20
46583;BME280;32309;48.858;8.252;2023-07-13T00:23:27;100305.78;;;21.27;52.53
46583;BME280;32309;48.858;8.252;2023-07-13T00:25:27;100307.91;;;21.24;53.68
46583;BME280;32309;48.858;8.252;2023-07-13T00:27:28;100301.47;;;21.26;53.96
46583;BME280;32309;48.858;8.252;2023-07-13T00:29:29;100305.63;;;21.29;53.80
46583;BME280;32309;48.858;8.252;2023-07-13T00:31:30;100295.88;;;21.30;53.04
46583;BME280;32309;48.858;8.252;2023-07-13T00:33:30;100298.69;;;21.28;53.76
46583;BME280;32309;48.858;8.252;2023-07-13T00:35:31;100305.25;;;21.24;53.56
46583;BME280;32309;48.858;8.252;2023-07-13T00:37:32;100305.72;;;21.19;53.48
46583;BME280;32309;48.858;8.252;2023-07-13T00:39:33;100302.22;;;21.10;54.15
46583;BME280;32309;48.858;8.252;2023-07-13T00:41:33;100300.91;;;21.06;55.18
46583;BME280;32309;48.858;8.252;2023-07-13T00:43:35;100301.19;;;21.03;55.33
46583;BME280;32309;48.858;8.252;2023-07-13T00:47:36;100304.91;;;20.92;55.21
46583;BME280;32309;48.858;8.252;2023-07-13T00:49:36;100307.72;;;20.91;56.08
46583;BME280;32309;48.858;8.252;2023-07-13T00:51:39;100297.00;;;20.92;55.68
46583;BME280;32309;48.858;8.252;2023-07-13T00:53:54;100304.91;;;20.92;55.82
46583;BME280;32309;48.858;8.252;2023-07-13T00:55:57;100303.94;;;20.93;55.53
46583;BME280;32309;48.858;8.252;2023-07-13T00:57:58;100309.66;;;20.89;55.70
46583;BME280;32309;48.858;8.252;2023-07-13T00:59:59;100308.03;;;20.88;55.97
46583;BME280;32309;48.858;8.252;2023-07-13T01:02:06;100304.38;;;20.89;55.95
46583;BME280;32309;48.858;8.252;2023-07-13T01:04:07;100298.31;;;20.88;55.97
46583;BME280;32309;48.858;8.252;2023-07-13T01:06:08;100289.25;;;20.91;55.82
46583;BME280;32309;48.858;8.252;2023-07-13T01:08:08;100288.91;;;20.86;55.72
46583;BME280;32309;48.858;8.252;2023-07-13T01:10:08;100296.00;;;20.85;55.58
46583;BME280;32309;48.858;8.252;2023-07-13T01:12:10;100296.13;;;20.84;56.47
46583;BME280;32309;48.858;8.252;2023-07-13T01:14:11;100287.72;;;20.80;56.75
46583;BME280;32309;48.858;8.252;2023-07-13T01:16:13;100285.38;;;20.77;57.42
46583;BME280;32309;48.858;8.252;2023-07-13T01:18:20;100281.78;;;20.78;56.95
46583;BME280;32309;48.858;8.252;2023-07-13T01:20:24;100293.06;;;20.70;56.92
46583;BME280;32309;48.858;8.252;2023-07-13T01:22:24;100294.50;;;20.65;57.54
46583;BME280;32309;48.858;8.252;2023-07-13T01:24:26;100298.03;;;20.55;57.96
46583;BME280;32309;48.858;8.252;2023-07-13T01:26:26;100293.59;;;20.56;57.28
46583;BME280;32309;48.858;8.252;2023-07-13T01:28:27;100301.31;;;20.57;56.40
46583;BME280;32309;48.858;8.252;2023-07-13T01:30:28;100294.59;;;20.55;54.82
46583;BME280;32309;48.858;8.252;2023-07-13T01:32:29;100289.19;;;20.38;56.49
46583;BME280;32309;48.858;8.252;2023-07-13T01:34:31;100295.13;;;20.22;58.16
46583;BME280;32309;48.858;8.252;2023-07-13T01:36:31;100297.22;;;20.19;57.74
46583;BME280;32309;48.858;8.252;2023-07-13T01:38:32;100297.22;;;20.19;56.99
46583;BME280;32309;48.858;8.252;2023-07-13T01:40:34;100300.31;;;20.14;58.17
46583;BME280;32309;48.858;8.252;2023-07-13T01:42:36;100295.22;;;20.13;58.31
46583;BME280;32309;48.858;8.252;2023-07-13T01:44:37;100297.97;;;20.11;58.19
46583;BME280;32309;48.858;8.252;2023-07-13T01:46:38;100300.38;;;20.04;58.13
46583;BME280;32309;48.858;8.252;2023-07-13T01:48:38;100299.19;;;19.99;58.94
46583;BME280;32309;48.858;8.252;2023-07-13T01:50:38;100310.81;;;19.96;57.89
46583;BME280;32309;48.858;8.252;2023-07-13T01:52:38;100311.94;;;19.93;58.48
46583;BME280;32309;48.858;8.252;2023-07-13T01:54:39;100308.13;;;19.88;58.84
46583;BME280;32309;48.858;8.252;2023-07-13T01:56:39;100314.88;;;19.90;58.98
46583;BME280;32309;48.858;8.252;2023-07-13T01:58:41;100307.66;;;19.92;57.48
46583;BME280;32309;48.858;8.252;2023-07-13T02:00:41;100302.25;;;19.94;58.83
46583;BME280;32309;48.858;8.252;2023-07-13T02:02:42;100303.53;;;19.90;59.38
46583;BME280;32309;48.858;8.252;2023-07-13T02:04:42;100300.22;;;19.88;59.04
46583;BME280;32309;48.858;8.252;2023-07-13T02:06:42;100295.63;;;19.90;59.14
46583;BME280;32309;48.858;8.252;2023-07-13T02:08:43;100291.38;;;19.89;58.49
46583;BME280;32309;48.858;8.252;2023-07-13T02:10:43;100297.59;;;19.88;59.53
46583;BME280;32309;48.858;8.252;2023-07-13T02:12:43;100291.22;;;19.81;59.71
46583;BME280;32309;48.858;8.252;2023-07-13T02:14:44;100295.81;;;19.78;58.89
46583;BME280;32309;48.858;8.252;2023-07-13T02:16:44;100291.38;;;19.79;59.04
46583;BME280;32309;48.858;8.252;2023-07-13T02:18:44;100295.53;;;19.82;59.24
46583;BME280;32309;48.858;8.252;2023-07-13T02:20:45;100292.91;;;19.82;58.74
46583;BME280;32309;48.858;8.252;2023-07-13T02:22:45;100288.75;;;19.79;59.13
46583;BME280;32309;48.858;8.252;2023-07-13T02:24:45;100294.31;;;19.76;59.62
46583;BME280;32309;48.858;8.252;2023-07-13T02:26:46;100292.97;;;19.72;59.28
46583;BME280;32309;48.858;8.252;2023-07-13T02:28:46;100290.22;;;19.63;59.35
46583;BME280;32309;48.858;8.252;2023-07-13T02:30:47;100298.00;;;19.55;59.95
46583;BME280;32309;48.858;8.252;2023-07-13T02:32:47;100295.84;;;19.51;59.96
46583;BME280;32309;48.858;8.252;2023-07-13T02:34:47;100298.47;;;19.51;59.12
46583;BME280;32309;48.858;8.252;2023-07-13T02:36:48;100298.84;;;19.56;59.28
46583;BME280;32309;48.858;8.252;2023-07-13T02:38:49;100295.78;;;19.60;59.21
46583;BME280;32309;48.858;8.252;2023-07-13T02:40:50;100291.06;;;19.64;59.02
46583;BME280;32309;48.858;8.252;2023-07-13T02:42:51;100300.06;;;19.61;59.30
46583;BME280;32309;48.858;8.252;2023-07-13T02:44:51;100298.31;;;19.52;60.14
46583;BME280;32309;48.858;8.252;2023-07-13T02:46:51;100293.72;;;19.54;59.45
46583;BME280;32309;48.858;8.252;2023-07-13T02:48:51;100296.34;;;19.54;59.56
46583;BME280;32309;48.858;8.252;2023-07-13T02:50:53;100295.13;;;19.49;59.44
46583;BME280;32309;48.858;8.252;2023-07-13T02:52:53;100293.78;;;19.44;59.30
46583;BME280;32309;48.858;8.252;2023-07-13T02:54:53;100301.28;;;19.39;59.56
46583;BME280;32309;48.858;8.252;2023-07-13T02:56:54;100297.94;;;19.37;59.57
46583;BME280;32309;48.858;8.252;2023-07-13T02:58:54;100300.72;;;19.36;59.60
46583;BME280;32309;48.858;8.252;2023-07-13T03:00:55;100303.50;;;19.34;59.44
46583;BME280;32309;48.858;8.252;2023-07-13T03:02:55;100301.16;;;19.31;60.32
46583;BME280;32309;48.858;8.252;2023-07-13T03:04:57;100300.31;;;19.31;59.17
46583;BME280;32309;48.858;8.252;2023-07-13T03:06:58;100300.47;;;19.29;59.57
46583;BME280;32309;48.858;8.252;2023-07-13T03:08:58;100309.63;;;19.25;60.43
46583;BME280;32309;48.858;8.252;2023-07-13T03:11:00;100303.81;;;19.21;59.88
46583;BME280;32309;48.858;8.252;2023-07-13T03:13:02;100311.69;;;19.21;60.46
46583;BME280;32309;48.858;8.252;2023-07-13T03:15:02;100316.56;;;19.16;60.44
46583;BME280;32309;48.858;8.252;2023-07-13T03:17:03;100317.69;;;19.14;60.17
46583;BME280;32309;48.858;8.252;2023-07-13T03:19:03;100320.44;;;19.12;60.12
46583;BME280;32309;48.858;8.252;2023-07-13T03:21:04;100324.47;;;19.06;60.28
46583;BME280;32309;48.858;8.252;2023-07-13T03:23:06;100323.91;;;19.03;60.03
46583;BME280;32309;48.858;8.252;2023-07-13T03:25:06;100319.13;;;18.98;60.31
46583;BME280;32309;48.858;8.252;2023-07-13T03:27:07;100323.53;;;18.98;60.42
46583;BME280;32309;48.858;8.252;2023-07-13T03:29:07;100323.97;;;18.93;59.65
46583;BME280;32309;48.858;8.252;2023-07-13T03:31:09;100328.06;;;18.86;61.06
46583;BME280;32309;48.858;8.252;2023-07-13T03:33:13;100328.22;;;18.84;61.27
46583;BME280;32309;48.858;8.252;2023-07-13T03:35:13;100331.28;;;18.79;61.32
46583;BME280;32309;48.858;8.252;2023-07-13T03:37:13;100331.28;;;18.79;61.32
46583;BME280;32309;48.858;8.252;2023-07-13T03:39:13;100329.31;;;18.82;61.44
46583;BME280;32309;48.858;8.252;2023-07-13T03:41:16;100335.56;;;18.81;61.29
46583;BME280;32309;48.858;8.252;2023-07-13T03:43:16;100333.06;;;18.79;60.96
46583;BME280;32309;48.858;8.252;2023-07-13T03:45:17;100334.16;;;18.76;60.51
46583;BME280;32309;48.858;8.252;2023-07-13T03:47:17;100348.13;;;18.77;61.25
46583;BME280;32309;48.858;8.252;2023-07-13T03:49:18;100340.53;;;18.74;61.12
46583;BME280;32309;48.858;8.252;2023-07-13T03:51:18;100335.41;;;18.72;61.15
46583;BME280;32309;48.858;8.252;2023-07-13T03:53:19;100341.63;;;18.71;60.72
46583;BME280;32309;48.858;8.252;2023-07-13T03:55:19;100341.78;;;18.70;59.63
46583;BME280;32309;48.858;8.252;2023-07-13T03:57:20;100340.13;;;18.69;60.31
46583;BME280;32309;48.858;8.252;2023-07-13T03:59:20;100348.28;;;18.66;60.29
46583;BME280;32309;48.858;8.252;2023-07-13T04:01:21;100352.00;;;18.63;60.12
46583;BME280;32309;48.858;8.252;2023-07-13T04:03:23;100349.22;;;18.65;59.68
46583;BME280;32309;48.858;8.252;2023-07-13T04:05:24;100346.50;;;18.66;60.25
46583;BME280;32309;48.858;8.252;2023-07-13T04:07:24;100342.22;;;18.65;59.90
46583;BME280;32309;48.858;8.252;2023-07-13T04:09:24;100350.34;;;18.62;60.45
46583;BME280;32309;48.858;8.252;2023-07-13T04:11:28;100348.56;;;18.62;60.18
46583;BME280;32309;48.858;8.252;2023-07-13T04:13:29;100345.09;;;18.62;60.45
46583;BME280;32309;48.858;8.252;2023-07-13T04:15:30;100343.47;;;18.61;60.64
46583;BME280;32309;48.858;8.252;2023-07-13T04:17:30;100351.44;;;18.59;59.52
46583;BME280;32309;48.858;8.252;2023-07-13T04:19:31;100353.41;;;18.57;60.14
46583;BME280;32309;48.858;8.252;2023-07-13T04:21:31;100348.00;;;18.59;60.06
46583;BME280;32309;48.858;8.252;2023-07-13T04:23:31;100344.56;;;18.58;60.40
46583;BME280;32309;48.858;8.252;2023-07-13T04:25:32;100351.31;;;18.61;60.22
46583;BME280;32309;48.858;8.252;2023-07-13T04:27:32;100355.59;;;18.62;60.25
46583;BME280;32309;48.858;8.252;2023-07-13T04:29:32;100362.66;;;18.61;60.59
46583;BME280;32309;48.858;8.252;2023-07-13T04:31:33;100352.84;;;18.63;59.95
46583;BME280;32309;48.858;8.252;2023-07-13T04:33:33;100361.84;;;18.61;60.20
46583;BME280;32309;48.858;8.252;2023-07-13T04:35:34;100367.06;;;18.61;59.51
46583;BME280;32309;48.858;8.252;2023-07-13T04:37:34;100361.25;;;18.57;60.53
46583;BME280;32309;48.858;8.252;2023-07-13T04:39:35;100365.41;;;18.60;59.25
46583;BME280;32309;48.858;8.252;2023-07-13T04:41:35;100366.22;;;18.60;60.12
46583;BME280;32309;48.858;8.252;2023-07-13T04:43:36;100365.97;;;18.63;59.90
46583;BME280;32309;48.858;8.252;2023-07-13T04:45:36;100372.59;;;18.68;59.98
46583;BME280;32309;48.858;8.252;2023-07-13T04:47:36;100369.97;;;18.68;60.51
46583;BME280;32309;48.858;8.252;2023-07-13T04:49:37;100375.34;;;18.76;58.69
46583;BME280;32309;48.858;8.252;2023-07-13T04:51:37;100376.47;;;18.73;60.00
46583;BME280;32309;48.858;8.252;2023-07-13T04:53:38;100379.22;;;18.72;59.88
46583;BME280;32309;48.858;8.252;2023-07-13T04:55:38;100375.75;;;18.71;59.23
46583;BME280;32309;48.858;8.252;2023-07-13T04:57:38;100382.81;;;18.71;59.83
46583;BME280;32309;48.858;8.252;2023-07-13T04:59:39;100386.16;;;18.73;60.09
46583;BME280;32309;48.858;8.252;2023-07-13T05:01:40;100392.91;;;18.75;60.21
46583;BME280;32309;48.858;8.252;2023-07-13T05:03:41;100387.38;;;18.78;58.93
46583;BME280;32309;48.858;8.252;2023-07-13T05:05:41;100384.47;;;18.82;60.08
46583;BME280;32309;48.858;8.252;2023-07-13T05:07:41;100380.72;;;18.84;59.78
46583;BME280;32309;48.858;8.252;2023-07-13T05:09:42;100377.00;;;18.87;59.65
46583;BME280;32309;48.858;8.252;2023-07-13T05:11:43;100383.81;;;18.89;59.36
46583;BME280;32309;48.858;8.252;2023-07-13T05:13:44;100380.06;;;18.92;59.95
46583;BME280;32309;48.858;8.252;2023-07-13T05:15:44;100387.66;;;18.95;59.52
46583;BME280;32309;48.858;8.252;2023-07-13T05:17:45;100384.22;;;18.94;60.14
46583;BME280;32309;48.858;8.252;2023-07-13T05:19:45;100393.75;;;18.95;59.35
46583;BME280;32309;48.858;8.252;2023-07-13T05:21:45;100388.38;;;18.97;59.33
46583;BME280;32309;48.858;8.252;2023-07-13T05:23:46;100378.81;;;18.96;59.85
46583;BME280;32309;48.858;8.252;2023-07-13T05:25:47;100382.28;;;18.97;59.70
46583;BME280;32309;48.858;8.252;2023-07-13T05:27:47;100385.72;;;18.97;58.59
46583;BME280;32309;48.858;8.252;2023-07-13T05:29:48;100392.50;;;19.00;59.60
46583;BME280;32309;48.858;8.252;2023-07-13T05:31:49;100387.97;;;19.02;59.32
46583;BME280;32309;48.858;8.252;2023-07-13T05:34:02;100391.81;;;19.07;59.50
46583;BME280;32309;48.858;8.252;2023-07-13T05:36:03;100395.94;;;19.20;58.72
46583;BME280;32309;48.858;8.252;2023-07-13T05:38:04;100400.47;;;19.27;59.22
46583;BME280;32309;48.858;8.252;2023-07-13T05:40:04;100397.28;;;19.34;59.25
46583;BME280;32309;48.858;8.252;2023-07-13T05:42:05;100395.19;;;19.37;58.58
46583;BME280;32309;48.858;8.252;2023-07-13T05:44:06;100396.59;;;19.41;58.27
46583;BME280;32309;48.858;8.252;2023-07-13T05:46:06;100404.72;;;19.48;58.85
46583;BME280;32309;48.858;8.252;2023-07-13T05:48:06;100409.69;;;19.51;58.48
46583;BME280;32309;48.858;8.252;2023-07-13T05:50:07;100412.16;;;19.62;58.62
46583;BME280;32309;48.858;8.252;2023-07-13T05:52:07;100410.28;;;19.73;57.79
46583;BME280;32309;48.858;8.252;2023-07-13T05:54:08;100411.97;;;19.84;58.17
46583;BME280;32309;48.858;8.252;2023-07-13T05:56:09;100416.47;;;19.91;57.70
46583;BME280;32309;48.858;8.252;2023-07-13T05:58:10;100418.59;;;19.88;57.45
46583;BME280;32309;48.858;8.252;2023-07-13T06:00:11;100423.53;;;19.91;57.81
46583;BME280;32309;48.858;8.252;2023-07-13T06:02:13;100419.50;;;19.97;58.30
46583;BME280;32309;48.858;8.252;2023-07-13T06:04:14;100428.47;;;20.04;57.66
46583;BME280;32309;48.858;8.252;2023-07-13T06:06:15;100422.38;;;20.03;57.52
46583;BME280;32309;48.858;8.252;2023-07-13T06:08:15;100429.69;;;20.09;57.80
46583;BME280;32309;48.858;8.252;2023-07-13T06:10:16;100427.38;;;20.24;58.29
46583;BME280;32309;48.858;8.252;2023-07-13T06:12:16;100430.19;;;20.41;57.53
46583;BME280;32309;48.858;8.252;2023-07-13T06:14:16;100429.69;;;20.55;56.53
46583;BME280;32309;48.858;8.252;2023-07-13T06:16:17;100428.63;;;20.66;56.49
46583;BME280;32309;48.858;8.252;2023-07-13T06:18:17;100429.25;;;20.78;56.19
46583;BME280;32309;48.858;8.252;2023-07-13T06:20:18;100434.53;;;20.78;55.48
46583;BME280;32309;48.858;8.252;2023-07-13T06:22:18;100442.81;;;20.83;55.18
46583;BME280;32309;48.858;8.252;2023-07-13T06:24:18;100431.22;;;20.94;55.12
46583;BME280;32309;48.858;8.252;2023-07-13T06:26:19;100440.56;;;21.06;54.83
46583;BME280;32309;48.858;8.252;2023-07-13T06:28:20;100435.94;;;21.08;54.60
46583;BME280;32309;48.858;8.252;2023-07-13T06:30:20;100435.94;;;21.08;54.49
46583;BME280;32309;48.858;8.252;2023-07-13T06:32:21;100436.00;;;21.17;54.67
46583;BME280;32309;48.858;8.252;2023-07-13T06:34:21;100446.63;;;21.07;54.74
46583;BME280;32309;48.858;8.252;2023-07-13T06:36:21;100444.00;;;21.07;54.54
46583;BME280;32309;48.858;8.252;2023-07-13T06:38:22;100435.94;;;21.08;54.82
46583;BME280;32309;48.858;8.252;2023-07-13T06:40:22;100442.56;;;21.13;55.31
46583;BME280;32309;48.858;8.252;2023-07-13T06:42:22;100439.25;;;21.10;54.79
46583;BME280;32309;48.858;8.252;2023-07-13T06:44:22;100443.44;;;21.21;55.13
46583;BME280;32309;48.858;8.252;2023-07-13T06:46:23;100451.25;;;21.31;54.84
46583;BME280;32309;48.858;8.252;2023-07-13T06:48:23;100459.38;;;21.38;54.63
46583;BME280;32309;48.858;8.252;2023-07-13T06:50:24;100449.06;;;21.44;54.29
46583;BME280;32309;48.858;8.252;2023-07-13T06:52:24;100455.34;;;21.52;54.31
46583;BME280;32309;48.858;8.252;2023-07-13T06:54:24;100460.06;;;21.58;53.53
46583;BME280;32309;48.858;8.252;2023-07-13T06:56:25;100477.06;;;21.64;53.66
46583;BME280;32309;48.858;8.252;2023-07-13T06:58:25;100470.63;;;21.66;53.92
46583;BME280;32309;48.858;8.252;2023-07-13T07:00:25;100473.81;;;21.70;52.89
46583;BME280;32309;48.858;8.252;2023-07-13T07:02:25;100475.66;;;21.77;52.40
46583;BME280;32309;48.858;8.252;2023-07-13T07:04:26;100475.69;;;21.86;52.66
46583;BME280;32309;48.858;8.252;2023-07-13T07:06:26;100481.00;;;21.94;52.30
46583;BME280;32309;48.858;8.252;2023-07-13T07:08:27;100478.91;;;22.06;51.85
46583;BME280;32309;48.858;8.252;2023-07-13T07:10:28;100472.69;;;22.15;52.03
46583;BME280;32309;48.858;8.252;2023-07-13T07:12:30;100473.03;;;22.20;51.93
46583;BME280;32309;48.858;8.252;2023-07-13T07:14:30;100478.84;;;22.24;52.39
46583;BME280;32309;48.858;8.252;2023-07-13T07:16:31;100471.06;;;22.22;51.35
46583;BME280;32309;48.858;8.252;2023-07-13T07:18:31;100478.84;;;22.24;51.00
46583;BME280;32309;48.858;8.252;2023-07-13T07:20:32;100473.75;;;22.31;51.78
46583;BME280;32309;48.858;8.252;2023-07-13T07:22:32;100468.28;;;22.32;50.97
46583;BME280;32309;48.858;8.252;2023-07-13T07:24:33;100477.13;;;22.41;50.97
46583;BME280;32309;48.858;8.252;2023-07-13T07:26:33;100481.53;;;22.40;50.92
46583;BME280;32309;48.858;8.252;2023-07-13T07:28:33;100478.25;;;22.38;52.14
46583;BME280;32309;48.858;8.252;2023-07-13T07:30:34;100477.88;;;22.33;50.98
46583;BME280;32309;48.858;8.252;2023-07-13T07:32:35;100483.38;;;22.40;50.97
46583;BME280;32309;48.858;8.252;2023-07-13T07:34:35;100479.28;;;22.54;51.70
46583;BME280;32309;48.858;8.252;2023-07-13T07:36:35;100484.25;;;22.57;51.15
46583;BME280;32309;48.858;8.252;2023-07-13T07:38:36;100493.50;;;22.61;52.06
46583;BME280;32309;48.858;8.252;2023-07-13T07:40:40;100486.53;;;22.52;50.94
46583;BME280;32309;48.858;8.252;2023-07-13T07:42:40;100493.44;;;22.44;51.23
46583;BME280;32309;48.858;8.252;2023-07-13T07:44:41;100497.28;;;22.50;51.06
46583;BME280;32309;48.858;8.252;2023-07-13T07:46:41;100490.16;;;22.51;50.34
46583;BME280;32309;48.858;8.252;2023-07-13T07:48:42;100500.56;;;22.52;49.97
46583;BME280;32309;48.858;8.252;2023-07-13T07:50:42;100493.94;;;22.48;50.52
46583;BME280;32309;48.858;8.252;2023-07-13T07:52:42;100490.97;;;22.43;51.00
46583;BME280;32309;48.858;8.252;2023-07-13T07:54:44;100496.25;;;22.43;51.34
46583;BME280;32309;48.858;8.252;2023-07-13T07:56:44;100497.75;;;22.46;51.08
46583;BME280;32309;48.858;8.252;2023-07-13T07:58:44;100495.44;;;22.51;50.79
46583;BME280;32309;48.858;8.252;2023-07-13T08:00:45;100496.31;;;22.59;50.46
46583;BME280;32309;48.858;8.252;2023-07-13T08:02:45;100505.72;;;22.62;49.73
46583;BME280;32309;48.858;8.252;2023-07-13T08:04:45;100505.22;;;22.67;50.97
46583;BME280;32309;48.858;8.252;2023-07-13T08:06:45;100501.41;;;22.61;49.25
46583;BME280;32309;48.858;8.252;2023-07-13T08:08:46;100506.88;;;22.59;49.63
46583;BME280;32309;48.858;8.252;2023-07-13T08:10:46;100502.75;;;22.65;49.17
46583;BME280;32309;48.858;8.252;2023-07-13T08:12:46;100500.97;;;22.74;48.67
46583;BME280;32309;48.858;8.252;2023-07-13T08:14:49;100490.06;;;22.85;48.91
46583;BME280;32309;48.858;8.252;2023-07-13T08:16:53;100494.38;;;22.94;48.43
46583;BME280;32309;48.858;8.252;2023-07-13T08:18:53;100491.25;;;22.99;48.83
46583;BME280;32309;48.858;8.252;2023-07-13T08:20:54;100494.53;;;22.93;47.70
46583;BME280;32309;48.858;8.252;2023-07-13T08:22:56;100490.22;;;23.00;47.11
46583;BME280;32309;48.858;8.252;2023-07-13T08:24:56;100499.16;;;23.07;46.11
46583;BME280;32309;48.858;8.252;2023-07-13T08:26:56;100496.38;;;23.17;47.07
46583;BME280;32309;48.858;8.252;2023-07-13T08:28:57;100487.47;;;23.26;46.70
46583;BME280;32309;48.858;8.252;2023-07-13T08:31:02;100486.81;;;23.33;45.71
46583;BME280;32309;48.858;8.252;2023-07-13T08:33:03;100485.63;;;23.43;46.55
46583;BME280;32309;48.858;8.252;2023-07-13T08:35:04;100490.75;;;23.53;46.35
46583;BME280;32309;48.858;8.252;2023-07-13T08:37:10;100488.44;;;23.58;46.61
46583;BME280;32309;48.858;8.252;2023-07-13T08:39:10;100488.59;;;23.65;45.49
46583;BME280;32309;48.858;8.252;2023-07-13T08:41:12;100487.06;;;23.71;45.08
46583;BME280;32309;48.858;8.252;2023-07-13T08:43:16;100484.25;;;23.72;44.73
46583;BME280;32309;48.858;8.252;2023-07-13T08:47:32;100490.00;;;23.84;45.13
46583;BME280;32309;48.858;8.252;2023-07-13T08:49:38;100486.72;;;23.90;44.16
46583;BME280;32309;48.858;8.252;2023-07-13T08:51:43;100486.69;;;23.99;44.31
46583;BME280;32309;48.858;8.252;2023-07-13T08:53:51;100481.22;;;24.08;45.88
46583;BME280;32309;48.858;8.252;2023-07-13T08:55:57;100480.84;;;24.12;43.22
46583;BME280;32309;48.858;8.252;2023-07-13T08:58:00;100484.00;;;24.15;42.53
46583;BME280;32309;48.858;8.252;2023-07-13T09:00:09;100487.09;;;24.19;42.75
46583;BME280;32309;48.858;8.252;2023-07-13T09:02:17;100482.97;;;24.16;41.28
46583;BME280;32309;48.858;8.252;2023-07-13T09:04:33;100482.81;;;24.18;43.43
46583;BME280;32309;48.858;8.252;2023-07-13T09:06:37;100482.66;;;24.19;41.34
46583;BME280;32309;48.858;8.252;2023-07-13T09:09:13;100485.56;;;24.33;43.65
46583;BME280;32309;48.858;8.252;2023-07-13T09:11:43;100481.91;;;24.34;40.57
46583;BME280;32309;48.858;8.252;2023-07-13T09:13:56;100479.56;;;24.39;41.13
46583;BME280;32309;48.858;8.252;2023-07-13T09:15:59;100479.53;;;24.47;39.20
46583;BME280;32309;48.858;8.252;2023-07-13T09:18:08;100480.34;;;24.48;39.12
46583;BME280;32309;48.858;8.252;2023-07-13T09:20:22;100478.00;;;24.53;38.89
46583;BME280;32309;48.858;8.252;2023-07-13T09:22:27;100472.34;;;24.56;40.64
46583;BME280;32309;48.858;8.252;2023-07-13T09:26:55;100477.69;;;24.48;39.27
46583;BME280;32309;48.858;8.252;2023-07-13T09:28:58;100483.94;;;24.55;41.26
46583;BME280;32309;48.858;8.252;2023-07-13T09:33:13;100477.47;;;24.57;39.65
46583;BME280;32309;48.858;8.252;2023-07-13T09:35:15;100472.50;;;24.63;41.45
46583;BME280;32309;48.858;8.252;2023-07-13T09:37:19;100477.31;;;24.59;41.59
46583;BME280;32309;48.858;8.252;2023-07-13T09:39:27;100478.28;;;24.58;39.79
46583;BME280;32309;48.858;8.252;2023-07-13T09:44:16;100480.59;;;24.61;38.24
46583;BME280;32309;48.858;8.252;2023-07-13T09:46:21;100471.50;;;24.64;37.84
46583;BME280;32309;48.858;8.252;2023-07-13T09:57:23;100476.72;;;25.18;37.97
46583;BME280;32309;48.858;8.252;2023-07-13T09:59:29;100471.72;;;25.23;38.29
46583;BME280;32309;48.858;8.252;2023-07-13T10:01:56;100475.66;;;25.28;39.16
46583;BME280;32309;48.858;8.252;2023-07-13T10:03:56;100465.47;;;25.31;36.88
46583;BME280;32309;48.858;8.252;2023-07-13T10:06:01;100477.31;;;25.29;37.12
46583;BME280;32309;48.858;8.252;2023-07-13T10:08:23;100466.22;;;25.25;39.55
46583;BME280;32309;48.858;8.252;2023-07-13T10:10:23;100459.91;;;25.26;39.94
46583;BME280;32309;48.858;8.252;2023-07-13T10:12:24;100465.03;;;25.28;39.12
46583;BME280;32309;48.858;8.252;2023-07-13T10:14:25;100466.50;;;25.30;38.46
46583;BME280;32309;48.858;8.252;2023-07-13T10:16:30;100462.81;;;25.39;39.24
46583;BME280;32309;48.858;8.252;2023-07-13T10:24:59;100453.28;;;25.45;38.04
46583;BME280;32309;48.858;8.252;2023-07-13T10:29:05;100452.91;;;25.48;38.88
46583;BME280;32309;48.858;8.252;2023-07-13T10:31:12;100461.53;;;25.50;38.94
46583;BME280;32309;48.858;8.252;2023-07-13T10:33:15;100456.69;;;25.54;38.33
46583;BME280;32309;48.858;8.252;2023-07-13T10:35:16;100462.38;;;25.66;38.64
46583;BME280;32309;48.858;8.252;2023-07-13T10:37:20;100460.16;;;25.69;37.05
46583;BME280;32309;48.858;8.252;2023-07-13T10:39:28;100458.22;;;25.78;36.51
46583;BME280;32309;48.858;8.252;2023-07-13T10:41:29;100456.66;;;25.84;38.42
46583;BME280;32309;48.858;8.252;2023-07-13T10:43:35;100454.47;;;25.87;36.53
46583;BME280;32309;48.858;8.252;2023-07-13T10:45:39;100455.75;;;25.91;37.06
46583;BME280;32309;48.858;8.252;2023-07-13T10:47:40;100454.56;;;25.94;37.41
46583;BME280;32309;48.858;8.252;2023-07-13T10:49:42;100451.81;;;25.87;38.56
46583;BME280;32309;48.858;8.252;2023-07-13T10:51:42;100453.56;;;25.80;36.48
46583;BME280;32309;48.858;8.252;2023-07-13T10:53:43;100454.75;;;25.78;36.51
46583;BME280;32309;48.858;8.252;2023-07-13T10:57:53;100457.94;;;25.88;38.15
46583;BME280;32309;48.858;8.252;2023-07-13T11:04:26;100441.47;;;25.92;36.65
46583;BME280;32309;48.858;8.252;2023-07-13T11:06:32;100446.97;;;25.91;36.08
46583;BME280;32309;48.858;8.252;2023-07-13T11:08:51;100442.94;;;25.95;35.89
46583;BME280;32309;48.858;8.252;2023-07-13T11:10:54;100443.66;;;25.89;35.91
46583;BME280;32309;48.858;8.252;2023-07-13T11:12:55;100441.94;;;25.81;36.12